createdAt,value
2022-11-24T00:02:21.014Z,100629.81
2022-11-24T00:04:51.841Z,100625.00
2022-11-24T00:07:22.887Z,100619.38
2022-11-24T00:09:53.429Z,100614.09
2022-11-24T00:12:24.245Z,100612.47
2022-11-24T00:14:56.449Z,100609.25
2022-11-24T00:17:26.729Z,100610.44
2022-11-24T00:19:57.893Z,100610.44
2022-11-24T00:22:28.758Z,100611.22
2022-11-24T00:24:59.155Z,100617.69
2022-11-24T00:27:29.876Z,100620.50
2022-11-24T00:30:02.759Z,100617.31
2022-11-24T00:32:33.825Z,100622.94
2022-11-24T00:35:04.430Z,100618.09
2022-11-24T00:37:34.706Z,100621.75
2022-11-24T00:40:04.785Z,100627.38
2022-11-24T00:42:35.019Z,100628.13
2022-11-24T00:45:13.865Z,100632.59
2022-11-24T00:47:45.160Z,100628.13
2022-11-24T00:50:15.788Z,100628.13
2022-11-24T00:52:46.850Z,100628.53
2022-11-24T00:55:17.183Z,100632.53
2022-11-24T00:57:47.331Z,100628.91
2022-11-24T01:00:21.241Z,100623.63
2022-11-24T01:02:52.030Z,100617.91
2022-11-24T01:05:22.128Z,100620.72
2022-11-24T01:07:53.077Z,100618.31
2022-11-24T01:10:23.318Z,100627.94
2022-11-24T01:12:54.129Z,100615.03
2022-11-24T01:15:26.675Z,100617.03
2022-11-24T01:17:57.164Z,100611.38
2022-11-24T01:20:28.077Z,100605.75
2022-11-24T01:22:58.772Z,100605.75
2022-11-24T01:25:29.020Z,100601.75
2022-11-24T01:27:59.668Z,100598.13
2022-11-24T01:30:31.711Z,100590.88
2022-11-24T01:33:02.606Z,100585.22
2022-11-24T01:35:33.289Z,100584.00
2022-11-24T01:38:03.488Z,100585.19
2022-11-24T01:40:34.194Z,100584.34
2022-11-24T01:43:04.121Z,100570.25
2022-11-24T01:45:41.359Z,100572.66
2022-11-24T01:48:27.116Z,100570.22
2022-11-24T01:51:07.821Z,100558.50
2022-11-24T01:53:39.720Z,100549.63
2022-11-24T01:56:13.066Z,100549.63
2022-11-24T01:58:47.124Z,100555.28
2022-11-24T02:01:20.351Z,100556.91
2022-11-24T02:03:52.684Z,100571.78
2022-11-24T02:06:29.758Z,100571.00
2022-11-24T02:09:06.497Z,100576.22
2022-11-24T02:11:41.423Z,100576.22
2022-11-24T02:14:18.401Z,100571.78
2022-11-24T02:17:05.565Z,100562.09
2022-11-24T02:19:53.418Z,100568.09
2022-11-24T02:22:35.687Z,100566.50
2022-11-24T02:25:22.489Z,100562.03
2022-11-24T02:27:57.407Z,100574.50
2022-11-24T02:30:28.163Z,100569.66
2022-11-24T02:32:59.011Z,100569.22
2022-11-24T02:35:31.159Z,100573.63
2022-11-24T02:38:01.839Z,100574.34
2022-11-24T02:40:33.128Z,100580.75
2022-11-24T02:43:13.022Z,100581.50
2022-11-24T02:45:43.524Z,100580.28
2022-11-24T02:48:14.199Z,100580.28
2022-11-24T02:50:45.042Z,100581.06
2022-11-24T02:53:15.970Z,100582.34
2022-11-24T02:55:46.022Z,100583.94
2022-11-24T02:58:18.330Z,100585.56
2022-11-24T03:00:49.033Z,100591.59
2022-11-24T03:03:19.188Z,100599.59
2022-11-24T03:05:48.992Z,100597.53
2022-11-24T03:08:19.657Z,100597.91
2022-11-24T03:10:50.617Z,100593.00
2022-11-24T03:13:22.865Z,100599.03
2022-11-24T03:15:53.926Z,100588.16
2022-11-24T03:18:25.308Z,100597.78
2022-11-24T03:20:55.884Z,100592.50
2022-11-24T03:23:26.460Z,100589.28
2022-11-24T03:25:56.819Z,100586.88
2022-11-24T03:28:28.121Z,100580.44
2022-11-24T03:30:58.838Z,100592.50
2022-11-24T03:33:28.891Z,100576.91
2022-11-24T03:35:59.477Z,100590.97
2022-11-24T03:38:29.493Z,100590.59
2022-11-24T03:41:00.554Z,100589.00
2022-11-24T03:43:35.923Z,100594.66
2022-11-24T03:46:18.911Z,100597.09
2022-11-24T03:48:49.657Z,100600.72
2022-11-24T03:51:20.580Z,100612.00
2022-11-24T03:53:50.910Z,100606.34
2022-11-24T03:56:21.577Z,100605.16
2022-11-24T03:58:53.909Z,100603.16
2022-11-24T04:01:24.176Z,100611.25
2022-11-24T04:03:54.661Z,100604.78
2022-11-24T04:06:24.819Z,100606.41
2022-11-24T04:08:55.013Z,100609.69
2022-11-24T04:11:41.802Z,100610.88
2022-11-24T04:14:14.586Z,100605.63
2022-11-24T04:16:45.186Z,100605.56
2022-11-24T04:19:15.777Z,100597.84
2022-11-24T04:21:46.712Z,100601.41
2022-11-24T04:24:16.561Z,100594.97
2022-11-24T04:26:47.080Z,100598.97
2022-11-24T04:29:20.111Z,100612.22
2022-11-24T04:31:50.984Z,100610.63
2022-11-24T04:34:21.965Z,100618.69
2022-11-24T04:36:52.686Z,100620.66
2022-11-24T04:39:28.308Z,100613.84
2022-11-24T04:41:59.009Z,100611.03
2022-11-24T04:44:31.286Z,100621.50
2022-11-24T04:47:01.930Z,100618.63
2022-11-24T04:49:33.172Z,100614.19
2022-11-24T04:52:04.251Z,100620.56
2022-11-24T04:54:35.108Z,100614.47
2022-11-24T04:57:05.959Z,100619.75
2022-11-24T04:59:38.752Z,100629.00
2022-11-24T05:02:09.388Z,100637.44
2022-11-24T05:04:40.922Z,100638.69
2022-11-24T05:07:18.360Z,100629.88
2022-11-24T05:10:02.479Z,100633.88
2022-11-24T05:12:33.257Z,100641.91
2022-11-24T05:15:08.224Z,100631.81
2022-11-24T05:17:40.853Z,100643.06
2022-11-24T05:20:12.380Z,100646.72
2022-11-24T05:22:43.190Z,100635.06
2022-11-24T05:25:16.422Z,100641.16
2022-11-24T05:27:46.190Z,100648.84
2022-11-24T05:30:21.576Z,100655.28
2022-11-24T05:32:51.658Z,100659.28
2022-11-24T05:35:21.980Z,100651.66
2022-11-24T05:37:52.348Z,100650.13
2022-11-24T05:40:23.369Z,100651.75
2022-11-24T05:42:54.075Z,100660.59
2022-11-24T05:45:27.306Z,100667.53
2022-11-24T05:47:58.116Z,100671.97
2022-11-24T05:50:29.366Z,100666.00
2022-11-24T05:53:04.528Z,100667.75
2022-11-24T05:55:36.232Z,100670.41
2022-11-24T05:58:11.054Z,100661.75
2022-11-24T06:00:42.853Z,100666.03
2022-11-24T06:03:13.899Z,100655.81
2022-11-24T06:05:48.994Z,100667.75
2022-11-24T06:08:19.156Z,100676.03
2022-11-24T06:10:49.090Z,100683.16
2022-11-24T06:13:21.158Z,100679.38
2022-11-24T06:15:53.570Z,100673.19
2022-11-24T06:18:24.418Z,100682.25
2022-11-24T06:21:10.393Z,100689.72
2022-11-24T06:23:41.957Z,100685.09
2022-11-24T06:26:14.356Z,100694.09
2022-11-24T06:28:45.142Z,100674.81
2022-11-24T06:31:17.831Z,100680.59
2022-11-24T06:33:49.001Z,100680.72
2022-11-24T06:36:19.808Z,100682.81
2022-11-24T06:38:50.371Z,100676.00
2022-11-24T06:41:20.908Z,100672.44
2022-11-24T06:43:51.019Z,100670.06
2022-11-24T06:46:23.887Z,100667.28
2022-11-24T06:48:55.185Z,100675.50
2022-11-24T06:51:26.516Z,100680.84
2022-11-24T06:53:57.498Z,100679.66
2022-11-24T06:56:28.560Z,100682.50
2022-11-24T06:58:58.725Z,100679.69
2022-11-24T07:01:33.042Z,100683.31
2022-11-24T07:04:05.608Z,100690.59
2022-11-24T07:06:35.341Z,100685.69
2022-11-24T07:09:06.048Z,100695.81
2022-11-24T07:11:36.824Z,100697.41
2022-11-24T07:14:08.140Z,100698.63
2022-11-24T07:16:42.151Z,100700.28
2022-11-24T07:19:12.607Z,100703.16
2022-11-24T07:21:43.272Z,100707.25
2022-11-24T07:24:14.333Z,100709.66
2022-11-24T07:26:44.730Z,100711.28
2022-11-24T07:29:14.672Z,100689.41
2022-11-24T07:31:47.760Z,100700.31
2022-11-24T07:34:18.283Z,100691.44
2022-11-24T07:36:49.125Z,100696.66
2022-11-24T07:39:19.947Z,100699.09
2022-11-24T07:41:50.661Z,100692.63
2022-11-24T07:44:21.013Z,100678.47
2022-11-24T07:46:53.071Z,100676.47
2022-11-24T07:49:23.140Z,100677.31
2022-11-24T07:51:53.822Z,100680.97
2022-11-24T07:54:24.576Z,100684.25
2022-11-24T07:56:54.705Z,100678.97
2022-11-24T07:59:25.247Z,100672.53
2022-11-24T08:02:11.269Z,100672.53
2022-11-24T08:04:43.918Z,100669.28
2022-11-24T08:07:15.010Z,100672.50
2022-11-24T08:09:45.132Z,100665.22
2022-11-24T08:12:14.849Z,100662.38
2022-11-24T08:14:45.652Z,100661.56
2022-11-24T08:17:17.764Z,100662.75
2022-11-24T08:19:48.658Z,100664.78
2022-11-24T08:22:19.229Z,100656.28
2022-11-24T08:24:49.807Z,100657.50
2022-11-24T08:27:21.215Z,100663.56
2022-11-24T08:29:52.074Z,100659.94
2022-11-24T08:32:24.853Z,100660.38
2022-11-24T08:34:59.652Z,100655.13
2022-11-24T08:37:38.892Z,100654.81
2022-11-24T08:40:10.983Z,100648.75
2022-11-24T08:42:41.422Z,100652.00
2022-11-24T08:45:20.753Z,100642.72
2022-11-24T08:47:58.193Z,100643.94
2022-11-24T08:50:28.493Z,100638.25
2022-11-24T08:52:59.141Z,100626.94
2022-11-24T08:55:29.274Z,100621.69
2022-11-24T08:57:59.519Z,100609.53
2022-11-24T09:00:29.409Z,100599.41
2022-11-24T09:03:02.796Z,100602.22
2022-11-24T09:08:24.277Z,100592.50
2022-11-24T09:10:55.201Z,100594.47
2022-11-24T09:13:26.132Z,100597.28
2022-11-24T09:15:56.898Z,100596.06
2022-11-24T09:21:32.139Z,100593.59
2022-11-24T09:24:03.019Z,100594.00
2022-11-24T09:26:36.849Z,100589.56
2022-11-24T09:29:09.238Z,100585.09
2022-11-24T09:31:41.014Z,100579.44
2022-11-24T09:34:17.666Z,100578.63
2022-11-24T09:36:49.657Z,100574.19
2022-11-24T09:39:19.729Z,100567.31
2022-11-24T09:42:17.880Z,100570.94
2022-11-24T09:45:42.055Z,100570.53
2022-11-24T09:48:28.665Z,100574.97
2022-11-24T09:51:07.924Z,100561.22
2022-11-24T09:53:46.754Z,100562.81
2022-11-24T09:56:24.971Z,100564.44
2022-11-24T09:59:03.203Z,100559.59
2022-11-24T10:01:38.727Z,100557.97
2022-11-24T10:04:22.236Z,100564.00
2022-11-24T10:07:06.535Z,100562.38
2022-11-24T10:10:10.639Z,100563.59
2022-11-24T10:13:02.964Z,100565.63
2022-11-24T10:15:49.915Z,100569.66
2022-11-24T10:18:52.775Z,100561.56
2022-11-24T10:21:58.573Z,100546.19
2022-11-24T10:25:07.160Z,100540.91
2022-11-24T10:27:45.317Z,100547.00
2022-11-24T10:30:24.377Z,100548.63
2022-11-24T10:33:04.320Z,100538.50
2022-11-24T10:35:46.004Z,100533.66
2022-11-24T10:38:37.490Z,100532.44
2022-11-24T10:41:17.864Z,100538.50
2022-11-24T10:43:47.748Z,100527.59
2022-11-24T10:46:26.650Z,100530.78
2022-11-24T10:49:03.708Z,100532.41
2022-11-24T10:52:02.745Z,100532.41
2022-11-24T10:54:32.804Z,100521.50
2022-11-24T10:57:05.500Z,100525.13
2022-11-24T10:59:40.797Z,100515.44
2022-11-24T11:02:38.883Z,100516.63
2022-11-24T11:05:42.656Z,100519.47
2022-11-24T11:08:24.282Z,100507.34
2022-11-24T11:11:21.523Z,100502.47
2022-11-24T11:14:05.167Z,100488.75
2022-11-24T11:16:42.469Z,100470.16
2022-11-24T11:20:01.722Z,100472.16
2022-11-24T11:22:33.896Z,100473.38
2022-11-24T11:25:25.073Z,100477.00
2022-11-24T11:28:25.748Z,100470.94
2022-11-24T11:31:21.447Z,100467.66
2022-11-24T11:34:09.437Z,100469.25
2022-11-24T11:36:47.407Z,100475.34
2022-11-24T11:39:33.479Z,100483.00
2022-11-24T11:45:28.938Z,100504.81
2022-11-24T11:48:43.523Z,100503.56
2022-11-24T11:55:00.369Z,100506.00
2022-11-24T11:57:51.578Z,100500.78
2022-11-24T12:00:24.368Z,100509.66
2022-11-24T12:03:44.901Z,100504.41
2022-11-24T12:06:58.175Z,100510.50
2022-11-24T12:09:52.701Z,100502.47
2022-11-24T12:12:56.842Z,100493.56
2022-11-24T12:15:40.400Z,100498.84
2022-11-24T12:21:55.391Z,100512.56
2022-11-24T12:24:51.056Z,100505.28
2022-11-24T12:27:47.915Z,100517.41
2022-11-24T12:30:24.589Z,100514.56
2022-11-24T12:33:38.128Z,100514.56
2022-11-24T12:36:34.216Z,100515.41
2022-11-24T12:39:13.753Z,100509.75
2022-11-24T12:42:04.634Z,100509.34
2022-11-24T12:45:06.966Z,100515.81
2022-11-24T12:48:01.187Z,100522.69
2022-11-24T12:50:36.881Z,100513.38
2022-11-24T12:53:18.438Z,100516.19
2022-11-24T12:55:50.020Z,100515.41
2022-11-24T12:58:34.463Z,100511.75
2022-11-24T13:01:20.388Z,100517.78
2022-11-24T13:04:15.832Z,100514.94
2022-11-24T13:06:58.110Z,100513.72
2022-11-24T13:09:29.976Z,100509.25
2022-11-24T13:12:17.221Z,100512.09
2022-11-24T13:14:51.584Z,100508.44
2022-11-24T13:17:50.295Z,100505.59
2022-11-24T13:20:35.187Z,100510.81
2022-11-24T13:23:10.797Z,100509.59
2022-11-24T13:26:31.194Z,100511.59
2022-11-24T13:29:18.341Z,100505.91
2022-11-24T13:31:57.697Z,100513.19
2022-11-24T13:35:09.660Z,100514.78
2022-11-24T13:37:54.755Z,100507.50
2022-11-24T13:41:06.207Z,100506.69
2022-11-24T13:43:39.727Z,100509.91
2022-11-24T13:46:13.663Z,100514.38
2022-11-24T13:49:05.479Z,100522.44
2022-11-24T13:51:38.322Z,100523.63
2022-11-24T13:54:15.519Z,100526.47
2022-11-24T13:56:46.706Z,100530.91
2022-11-24T13:59:37.215Z,100526.03
2022-11-24T14:02:27.169Z,100528.84
2022-11-24T14:04:59.285Z,100533.69
2022-11-24T14:07:32.193Z,100524.38
2022-11-24T14:10:04.626Z,100514.66
2022-11-24T14:12:36.363Z,100519.47
2022-11-24T14:15:29.956Z,100528.75
2022-11-24T14:18:01.819Z,100513.34
2022-11-24T14:20:33.354Z,100520.19
2022-11-24T14:23:04.596Z,100512.13
2022-11-24T14:25:36.011Z,100515.78
2022-11-24T14:28:17.981Z,100514.94
2022-11-24T14:30:50.257Z,100514.50
2022-11-24T14:33:23.838Z,100521.78
2022-11-24T14:35:54.900Z,100527.81
2022-11-24T14:38:24.824Z,100516.09
2022-11-24T14:40:57.696Z,100524.97
2022-11-24T14:43:34.374Z,100521.31
2022-11-24T14:46:10.856Z,100518.06
2022-11-24T14:48:54.270Z,100521.28
2022-11-24T14:51:29.301Z,100518.84
2022-11-24T14:54:04.364Z,100514.41
2022-11-24T14:56:38.578Z,100516.41
2022-11-24T14:59:28.215Z,100519.63
2022-11-24T15:02:02.241Z,100523.66
2022-11-24T15:07:38.631Z,100522.44
2022-11-24T15:10:24.168Z,100519.97
2022-11-24T15:13:01.223Z,100524.81
2022-11-24T15:15:36.163Z,100537.31
2022-11-24T15:18:28.118Z,100548.63
2022-11-24T15:20:58.521Z,100553.84
2022-11-24T15:23:31.728Z,100553.06
2022-11-24T15:26:33.048Z,100546.56
2022-11-24T15:29:06.065Z,100543.31
2022-11-24T15:31:37.108Z,100547.38
2022-11-24T15:34:12.202Z,100558.25
2022-11-24T15:36:42.858Z,100553.78
2022-11-24T15:39:16.906Z,100550.97
2022-11-24T15:41:47.806Z,100554.19
2022-11-24T15:44:19.306Z,100549.34
2022-11-24T15:46:49.455Z,100553.34
2022-11-24T15:49:21.176Z,100558.59
2022-11-24T15:51:52.229Z,100553.34
2022-11-24T15:54:25.714Z,100555.31
2022-11-24T15:56:56.376Z,100552.91
2022-11-24T15:59:26.794Z,100557.75
2022-11-24T16:01:57.840Z,100556.94
2022-11-24T16:04:32.899Z,100560.94
2022-11-24T16:07:07.573Z,100569.41
2022-11-24T16:09:38.483Z,100567.78
2022-11-24T16:12:10.893Z,100575.47
2022-11-24T16:14:42.440Z,100571.84
2022-11-24T16:17:15.320Z,100576.66
2022-11-24T16:20:00.110Z,100579.88
2022-11-24T16:22:33.432Z,100575.00
2022-11-24T16:25:04.526Z,100581.84
2022-11-24T16:27:34.445Z,100582.25
2022-11-24T16:30:05.398Z,100587.03
2022-11-24T16:32:36.309Z,100596.38
2022-11-24T16:35:15.030Z,100590.72
2022-11-24T16:37:45.964Z,100593.16
2022-11-24T16:40:18.644Z,100585.50
2022-11-24T16:42:49.465Z,100598.00
2022-11-24T16:45:19.698Z,100588.69
2022-11-24T16:47:51.408Z,100592.34
2022-11-24T16:50:24.460Z,100594.34
2022-11-24T16:52:55.233Z,100592.69
2022-11-24T16:55:26.982Z,100594.69
2022-11-24T16:57:59.928Z,100595.91
2022-11-24T17:00:30.904Z,100592.66
2022-11-24T17:03:01.505Z,100604.72
2022-11-24T17:05:34.449Z,100607.13
2022-11-24T17:08:08.893Z,100602.25
2022-11-24T17:10:41.622Z,100600.63
2022-11-24T17:13:11.405Z,100598.19
2022-11-24T17:15:47.217Z,100600.56
2022-11-24T17:18:24.843Z,100600.56
2022-11-24T17:21:07.800Z,100599.78
2022-11-24T17:23:40.970Z,100602.59
2022-11-24T17:26:15.704Z,100602.22
2022-11-24T17:28:48.637Z,100596.56
2022-11-24T17:31:23.490Z,100607.03
2022-11-24T17:33:56.763Z,100604.19
2022-11-24T17:36:29.873Z,100598.56
2022-11-24T17:39:04.945Z,100600.56
2022-11-24T17:41:35.961Z,100601.78
2022-11-24T17:44:06.898Z,100595.31
2022-11-24T17:46:37.469Z,100593.31
2022-11-24T17:49:13.499Z,100596.97
2022-11-24T17:51:46.809Z,100595.72
2022-11-24T17:54:45.956Z,100588.50
2022-11-24T17:57:07.494Z,100593.31
2022-11-24T17:59:38.160Z,100584.44
2022-11-24T18:02:08.659Z,100581.63
2022-11-24T18:04:38.744Z,100590.09
2022-11-24T18:07:10.855Z,100591.31
2022-11-24T18:09:41.650Z,100576.72
2022-11-24T18:12:12.236Z,100578.28
2022-11-24T18:14:42.556Z,100585.91
2022-11-24T18:17:13.397Z,100591.13
2022-11-24T18:19:44.140Z,100589.91
2022-11-24T18:22:16.294Z,100588.63
2022-11-24T18:24:46.745Z,100597.50
2022-11-24T18:27:17.203Z,100580.91
2022-11-24T18:29:50.854Z,100584.06
2022-11-24T18:32:23.802Z,100570.31
2022-11-24T18:34:54.580Z,100572.25
2022-11-24T18:37:26.923Z,100575.03
2022-11-24T18:39:56.894Z,100562.84
2022-11-24T18:42:27.426Z,100566.47
2022-11-24T18:44:58.762Z,100566.81
2022-11-24T18:47:29.637Z,100567.22
2022-11-24T18:50:00.539Z,100565.59
2022-11-24T18:52:32.526Z,100561.16
2022-11-24T18:55:05.227Z,100551.06
2022-11-24T18:57:35.328Z,100552.63
2022-11-24T19:00:07.465Z,100552.19
2022-11-24T19:02:38.039Z,100548.16
2022-11-24T19:05:09.003Z,100542.84
2022-11-24T19:07:41.500Z,100552.88
2022-11-24T19:10:13.866Z,100550.00
2022-11-24T19:12:45.234Z,100548.78
2022-11-24T19:15:16.287Z,100542.69
2022-11-24T19:17:47.533Z,100545.50
2022-11-24T19:20:17.910Z,100540.63
2022-11-24T19:22:50.295Z,100533.75
2022-11-24T19:25:20.876Z,100538.16
2022-11-24T19:27:50.869Z,100531.66
2022-11-24T19:30:21.553Z,100532.84
2022-11-24T19:32:52.014Z,100524.78
2022-11-24T19:35:22.559Z,100534.41
2022-11-24T19:37:56.151Z,100525.16
2022-11-24T19:40:26.408Z,100532.00
2022-11-24T19:42:57.006Z,100523.53
2022-11-24T19:45:29.593Z,100520.72
2022-11-24T19:48:00.150Z,100523.91
2022-11-24T19:50:30.651Z,100525.09
2022-11-24T19:53:02.806Z,100522.66
2022-11-24T19:55:32.773Z,100526.22
2022-11-24T19:58:03.254Z,100530.28
2022-11-24T20:00:33.657Z,100534.63
2022-11-24T20:03:03.892Z,100531.03
2022-11-24T20:05:34.385Z,100537.81
2022-11-24T20:08:07.370Z,100532.56
2022-11-24T20:10:40.232Z,100543.41
2022-11-24T20:13:10.835Z,100538.97
2022-11-24T20:15:41.457Z,100534.50
2022-11-24T20:18:11.268Z,100538.50
2022-11-24T20:20:41.140Z,100536.88
2022-11-24T20:23:14.170Z,100538.06
2022-11-24T20:25:44.203Z,100538.47
2022-11-24T20:28:15.045Z,100533.22
2022-11-24T20:30:44.866Z,100538.03
2022-11-24T20:33:15.526Z,100530.75
2022-11-24T20:35:45.513Z,100529.97
2022-11-24T20:38:17.596Z,100531.16
2022-11-24T20:40:47.590Z,100534.34
2022-11-24T20:43:19.063Z,100533.09
2022-11-24T20:45:49.055Z,100526.22
2022-11-24T20:48:18.560Z,100541.13
2022-11-24T20:50:51.456Z,100529.88
2022-11-24T20:53:24.130Z,100531.06
2022-11-24T20:55:54.043Z,100527.03
2022-11-24T20:58:24.312Z,100515.78
2022-11-24T21:00:55.726Z,100510.94
2022-11-24T21:03:26.645Z,100508.91
2022-11-24T21:05:58.649Z,100501.28
2022-11-24T21:08:30.681Z,100509.31
2022-11-24T21:11:02.693Z,100500.41
2022-11-24T21:13:36.646Z,100508.81
2022-11-24T21:16:15.929Z,100497.13
2022-11-24T21:18:47.766Z,100497.06
2022-11-24T21:21:18.725Z,100507.88
2022-11-24T21:23:52.142Z,100513.53
2022-11-24T21:26:22.661Z,100512.28
2022-11-24T21:28:53.402Z,100509.84
2022-11-24T21:31:25.132Z,100513.84
2022-11-24T21:33:57.343Z,100511.44
2022-11-24T21:36:29.353Z,100506.16
2022-11-24T21:39:02.218Z,100509.34
2022-11-24T21:41:35.736Z,100512.56
2022-11-24T21:44:05.709Z,100509.75
2022-11-24T21:46:43.941Z,100515.38
2022-11-24T21:49:15.736Z,100503.22
2022-11-24T21:51:45.654Z,100500.81
2022-11-24T21:54:17.881Z,100507.63
2022-11-24T21:56:48.570Z,100504.38
2022-11-24T21:59:23.644Z,100497.53
2022-11-24T22:01:54.440Z,100499.53
2022-11-24T22:04:25.491Z,100502.34
2022-11-24T22:06:56.606Z,100501.94
2022-11-24T22:09:28.435Z,100503.91
2022-11-24T22:11:58.995Z,100502.28
2022-11-24T22:14:29.827Z,100508.75
2022-11-24T22:17:00.159Z,100512.38
2022-11-24T22:19:30.910Z,100507.94
2022-11-24T22:22:01.337Z,100498.25
2022-11-24T22:24:56.951Z,100512.31
2022-11-24T22:27:27.544Z,100515.06
2022-11-24T22:29:57.993Z,100515.00
2022-11-24T22:32:27.680Z,100515.34
2022-11-24T22:34:58.058Z,100520.56
2022-11-24T22:37:27.927Z,100511.66
2022-11-24T22:40:00.455Z,100516.47
2022-11-24T22:42:31.011Z,100514.84
2022-11-24T22:45:01.472Z,100510.78
2022-11-24T22:47:31.804Z,100512.34
2022-11-24T22:50:02.847Z,100514.34
2022-11-24T22:52:34.655Z,100518.78
2022-11-24T22:55:07.441Z,100517.97
2022-11-24T22:57:38.227Z,100514.34
2022-11-24T23:00:10.619Z,100518.78
2022-11-24T23:02:41.246Z,100520.78
2022-11-24T23:05:16.748Z,100512.34
2022-11-24T23:07:50.226Z,100516.34
2022-11-24T23:10:22.737Z,100517.94
2022-11-24T23:12:55.081Z,100525.91
2022-11-24T23:15:24.913Z,100527.09
2022-11-24T23:17:55.298Z,100522.59
2022-11-24T23:20:25.760Z,100519.34
2022-11-24T23:22:57.338Z,100524.53
2022-11-24T23:25:30.285Z,100514.84
2022-11-24T23:27:59.933Z,100516.78
2022-11-24T23:30:30.498Z,100514.72
2022-11-24T23:33:00.605Z,100520.34
2022-11-24T23:35:30.986Z,100506.28
2022-11-24T23:38:07.572Z,100515.50
2022-11-24T23:40:40.313Z,100517.97
2022-11-24T23:43:10.317Z,100519.16
2022-11-24T23:45:43.232Z,100518.34
2022-11-24T23:48:13.232Z,100513.88
2022-11-24T23:50:43.825Z,100513.47
2022-11-24T23:53:13.988Z,100513.38
2022-11-24T23:55:46.821Z,100523.03
2022-11-24T23:58:17.147Z,100525.00
